sensor_id;sensor_type;location;lat;lon;timestamp;pressure;altitude;pressure_sealevel;temperature;humidity
64139;BME280;50435;43.700;-79.318;2023-04-01T00:01:49;99364.81;;;4.15;49.63
64139;BME280;50435;43.700;-79.318;2023-04-01T00:04:16;99372.98;;;4.68;49.22
64139;BME280;50435;43.700;-79.318;2023-04-01T00:06:43;99374.21;;;3.95;49.89
64139;BME280;50435;43.700;-79.318;2023-04-01T00:09:11;99377.99;;;4.16;49.57
64139;BME280;50435;43.700;-79.318;2023-04-01T00:11:39;99381.84;;;3.70;49.90
64139;BME280;50435;43.700;-79.318;2023-04-01T00:14:06;99375.89;;;4.39;49.76
64139;BME280;50435;43.700;-79.318;2023-04-01T00:16:34;99361.52;;;2.68;49.07
64139;BME280;50435;43.700;-79.318;2023-04-01T00:19:02;99352.64;;;4.20;49.40
64139;BME280;50435;43.700;-79.318;2023-04-01T00:21:30;99343.40;;;3.35;49.14
64139;BME280;50435;43.700;-79.318;2023-04-01T00:23:58;99353.87;;;4.48;49.25
64139;BME280;50435;43.700;-79.318;2023-04-01T00:26:25;99361.78;;;4.12;49.94
64139;BME280;50435;43.700;-79.318;2023-04-01T00:28:52;99356.65;;;4.16;49.59
64139;BME280;50435;43.700;-79.318;2023-04-01T00:31:20;99354.62;;;4.14;49.21
64139;BME280;50435;43.700;-79.318;2023-04-01T00:33:47;99360.37;;;4.09;49.14
64139;BME280;50435;43.700;-79.318;2023-04-01T00:36:16;99361.01;;;4.17;49.27
64139;BME280;50435;43.700;-79.318;2023-04-01T00:38:45;99350.53;;;4.21;49.37
64139;BME280;50435;43.700;-79.318;2023-04-01T00:41:14;99338.77;;;4.42;49.62
64139;BME280;50435;43.700;-79.318;2023-04-01T00:43:42;99350.24;;;3.72;48.95
64139;BME280;50435;43.700;-79.318;2023-04-01T00:46:10;99366.08;;;4.49;49.14
64139;BME280;50435;43.700;-79.318;2023-04-01T00:48:41;99367.75;;;3.99;49.22
64139;BME280;50435;43.700;-79.318;2023-04-01T00:51:11;99368.77;;;4.13;49.52
64139;BME280;50435;43.700;-79.318;2023-04-01T00:53:44;99370.13;;;4.10;49.50
64139;BME280;50435;43.700;-79.318;2023-04-01T00:56:14;99353.59;;;4.06;48.84
64139;BME280;50435;43.700;-79.318;2023-04-01T00:58:47;99353.98;;;4.01;49.97
64139;BME280;50435;43.700;-79.318;2023-04-01T01:01:15;99354.60;;;4.57;49.86
64139;BME280;50435;43.700;-79.318;2023-04-01T01:03:43;99350.98;;;3.81;49.50
64139;BME280;50435;43.700;-79.318;2023-04-01T01:06:18;99344.56;;;4.09;49.96
64139;BME280;50435;43.700;-79.318;2023-04-01T01:09:14;99343.28;;;3.92;50.08
64139;BME280;50435;43.700;-79.318;2023-04-01T01:11:50;99329.78;;;4.11;49.62
64139;BME280;50435;43.700;-79.318;2023-04-01T01:14:34;99320.31;;;4.29;49.96
64139;BME280;50435;43.700;-79.318;2023-04-01T01:17:11;99318.61;;;4.02;49.87
64139;BME280;50435;43.700;-79.318;2023-04-01T01:19:55;99311.23;;;3.80;50.05
64139;BME280;50435;43.700;-79.318;2023-04-01T01:22:36;99302.08;;;4.36;50.12
64139;BME280;50435;43.700;-79.318;2023-04-01T01:25:18;99294.22;;;4.41;49.96
64139;BME280;50435;43.700;-79.318;2023-04-01T01:28:00;99281.56;;;4.14;49.01
64139;BME280;50435;43.700;-79.318;2023-04-01T01:30:41;99280.94;;;2.70;49.56
64139;BME280;50435;43.700;-79.318;2023-04-01T01:33:20;99269.55;;;4.36;49.37
64139;BME280;50435;43.700;-79.318;2023-04-01T01:35:52;99265.03;;;4.08;50.38
64139;BME280;50435;43.700;-79.318;2023-04-01T01:38:23;99262.85;;;4.37;50.11
64139;BME280;50435;43.700;-79.318;2023-04-01T01:40:52;99256.09;;;4.10;50.04
64139;BME280;50435;43.700;-79.318;2023-04-01T01:43:25;99249.68;;;4.63;49.72
64139;BME280;50435;43.700;-79.318;2023-04-01T01:45:56;99252.82;;;4.09;50.02
64139;BME280;50435;43.700;-79.318;2023-04-01T01:48:27;99249.05;;;4.40;49.78
64139;BME280;50435;43.700;-79.318;2023-04-01T01:50:55;99254.83;;;4.08;49.63
64139;BME280;50435;43.700;-79.318;2023-04-01T01:53:23;99256.94;;;4.36;49.34
64139;BME280;50435;43.700;-79.318;2023-04-01T01:55:51;99257.18;;;4.08;49.99
64139;BME280;50435;43.700;-79.318;2023-04-01T01:58:21;99244.29;;;4.43;49.85
64139;BME280;50435;43.700;-79.318;2023-04-01T02:00:52;99231.43;;;4.11;49.76
64139;BME280;50435;43.700;-79.318;2023-04-01T02:03:23;99217.51;;;4.31;49.96
64139;BME280;50435;43.700;-79.318;2023-04-01T02:05:53;99224.84;;;4.01;49.66
64139;BME280;50435;43.700;-79.318;2023-04-01T02:08:26;99213.28;;;4.04;49.92
64139;BME280;50435;43.700;-79.318;2023-04-01T02:10:57;99207.82;;;4.31;50.60
64139;BME280;50435;43.700;-79.318;2023-04-01T02:13:30;99206.96;;;3.62;49.69
64139;BME280;50435;43.700;-79.318;2023-04-01T02:16:04;99213.72;;;4.34;50.07
64139;BME280;50435;43.700;-79.318;2023-04-01T02:18:36;99215.97;;;3.34;49.89
64139;BME280;50435;43.700;-79.318;2023-04-01T02:21:05;99218.45;;;4.31;50.43
64139;BME280;50435;43.700;-79.318;2023-04-01T02:23:35;99210.69;;;2.63;50.27
64139;BME280;50435;43.700;-79.318;2023-04-01T02:26:04;99209.43;;;4.07;49.88
64139;BME280;50435;43.700;-79.318;2023-04-01T02:28:33;99203.80;;;2.89;49.56
64139;BME280;50435;43.700;-79.318;2023-04-01T02:31:02;99198.00;;;4.13;49.92
64139;BME280;50435;43.700;-79.318;2023-04-01T02:33:31;99196.03;;;3.16;49.41
64139;BME280;50435;43.700;-79.318;2023-04-01T02:35:59;99187.81;;;4.08;49.80
64139;BME280;50435;43.700;-79.318;2023-04-01T02:38:27;99180.12;;;3.36;50.25
64139;BME280;50435;43.700;-79.318;2023-04-01T02:40:59;99171.22;;;4.05;50.36
64139;BME280;50435;43.700;-79.318;2023-04-01T02:43:27;99167.67;;;3.36;49.77
64139;BME280;50435;43.700;-79.318;2023-04-01T02:45:55;99169.68;;;4.04;50.39
64139;BME280;50435;43.700;-79.318;2023-04-01T02:48:23;99178.36;;;4.30;50.94
64139;BME280;50435;43.700;-79.318;2023-04-01T02:50:51;99168.87;;;4.05;50.67
64139;BME280;50435;43.700;-79.318;2023-04-01T02:53:18;99164.66;;;4.09;50.46
64139;BME280;50435;43.700;-79.318;2023-04-01T02:55:46;99171.09;;;4.11;51.13
64139;BME280;50435;43.700;-79.318;2023-04-01T02:58:13;99152.10;;;4.43;50.40
64139;BME280;50435;43.700;-79.318;2023-04-01T03:00:41;99136.70;;;3.93;50.66
64139;BME280;50435;43.700;-79.318;2023-04-01T03:03:08;99123.17;;;4.14;50.30
64139;BME280;50435;43.700;-79.318;2023-04-01T03:05:36;99108.55;;;3.71;50.92
64139;BME280;50435;43.700;-79.318;2023-04-01T03:08:03;99106.50;;;4.15;50.71
64139;BME280;50435;43.700;-79.318;2023-04-01T03:10:31;99098.97;;;3.01;50.86
64139;BME280;50435;43.700;-79.318;2023-04-01T03:12:58;99094.07;;;4.17;50.30
64139;BME280;50435;43.700;-79.318;2023-04-01T03:15:26;99088.96;;;3.73;50.55
64139;BME280;50435;43.700;-79.318;2023-04-01T03:17:53;99081.25;;;4.15;50.91
64139;BME280;50435;43.700;-79.318;2023-04-01T03:20:21;99078.36;;;4.43;50.95
64139;BME280;50435;43.700;-79.318;2023-04-01T03:22:49;99065.31;;;4.45;51.16
64139;BME280;50435;43.700;-79.318;2023-04-01T03:25:17;99052.88;;;4.11;50.84
64139;BME280;50435;43.700;-79.318;2023-04-01T03:27:44;99040.50;;;4.02;50.71
64139;BME280;50435;43.700;-79.318;2023-04-01T03:30:12;99039.99;;;4.22;50.70
64139;BME280;50435;43.700;-79.318;2023-04-01T03:32:40;99043.71;;;4.20;50.91
64139;BME280;50435;43.700;-79.318;2023-04-01T03:35:08;99036.86;;;4.68;50.63
64139;BME280;50435;43.700;-79.318;2023-04-01T03:37:35;99033.43;;;3.97;51.61
64139;BME280;50435;43.700;-79.318;2023-04-01T03:40:03;99035.21;;;4.20;51.41
64139;BME280;50435;43.700;-79.318;2023-04-01T03:42:31;99020.92;;;3.26;50.24
64139;BME280;50435;43.700;-79.318;2023-04-01T03:44:58;99009.98;;;4.20;50.71
64139;BME280;50435;43.700;-79.318;2023-04-01T03:47:26;99014.67;;;4.02;51.15
64139;BME280;50435;43.700;-79.318;2023-04-01T03:49:54;99007.27;;;4.27;51.04
64139;BME280;50435;43.700;-79.318;2023-04-01T03:52:22;99002.54;;;4.73;51.65
64139;BME280;50435;43.700;-79.318;2023-04-01T03:54:49;98995.16;;;4.04;51.56
64139;BME280;50435;43.700;-79.318;2023-04-01T03:57:17;98990.70;;;4.52;51.99
64139;BME280;50435;43.700;-79.318;2023-04-01T03:59:44;98978.21;;;4.22;51.64
64139;BME280;50435;43.700;-79.318;2023-04-01T04:02:11;98976.21;;;4.26;50.58
64139;BME280;50435;43.700;-79.318;2023-04-01T04:04:39;98958.51;;;4.16;51.76
64139;BME280;50435;43.700;-79.318;2023-04-01T04:07:07;98960.89;;;4.31;52.51
64139;BME280;50435;43.700;-79.318;2023-04-01T04:09:34;98963.37;;;3.21;52.10
64139;BME280;50435;43.700;-79.318;2023-04-01T04:12:02;98960.12;;;4.41;51.68
64139;BME280;50435;43.700;-79.318;2023-04-01T04:14:29;98956.75;;;3.51;51.98
64139;BME280;50435;43.700;-79.318;2023-04-01T04:16:56;98948.37;;;4.45;52.44
64139;BME280;50435;43.700;-79.318;2023-04-01T04:19:23;98935.86;;;4.50;51.90
64139;BME280;50435;43.700;-79.318;2023-04-01T04:21:50;98933.24;;;4.31;52.31
64139;BME280;50435;43.700;-79.318;2023-04-01T04:24:18;98957.13;;;4.59;52.18
64139;BME280;50435;43.700;-79.318;2023-04-01T04:26:45;98949.46;;;4.40;51.81
64139;BME280;50435;43.700;-79.318;2023-04-01T04:29:12;98950.87;;;4.62;52.11
64139;BME280;50435;43.700;-79.318;2023-04-01T04:31:39;98949.19;;;4.36;52.49
64139;BME280;50435;43.700;-79.318;2023-04-01T04:34:07;98943.26;;;4.57;53.13
64139;BME280;50435;43.700;-79.318;2023-04-01T04:36:34;98932.53;;;3.59;53.20
64139;BME280;50435;43.700;-79.318;2023-04-01T04:39:02;98922.00;;;4.83;52.39
64139;BME280;50435;43.700;-79.318;2023-04-01T04:41:29;98912.92;;;3.40;52.71
64139;BME280;50435;43.700;-79.318;2023-04-01T04:43:56;98902.51;;;4.60;52.45
64139;BME280;50435;43.700;-79.318;2023-04-01T04:46:24;98894.47;;;4.63;52.78
64139;BME280;50435;43.700;-79.318;2023-04-01T04:48:52;98881.84;;;4.71;52.63
64139;BME280;50435;43.700;-79.318;2023-04-01T04:51:20;98875.59;;;5.21;52.51
64139;BME280;50435;43.700;-79.318;2023-04-01T04:53:48;98864.03;;;4.31;52.29
64139;BME280;50435;43.700;-79.318;2023-04-01T04:56:18;98851.97;;;4.73;52.31
64139;BME280;50435;43.700;-79.318;2023-04-01T04:58:46;98843.83;;;4.73;52.24
64139;BME280;50435;43.700;-79.318;2023-04-01T05:01:15;98825.60;;;4.74;52.23
64139;BME280;50435;43.700;-79.318;2023-04-01T05:03:43;98799.77;;;4.68;52.20
64139;BME280;50435;43.700;-79.318;2023-04-01T05:06:13;98787.27;;;4.65;52.66
64139;BME280;50435;43.700;-79.318;2023-04-01T05:08:41;98763.84;;;4.49;52.25
64139;BME280;50435;43.700;-79.318;2023-04-01T05:11:11;98751.40;;;4.66;51.69
64139;BME280;50435;43.700;-79.318;2023-04-01T05:13:40;98745.64;;;3.76;52.26
64139;BME280;50435;43.700;-79.318;2023-04-01T05:16:09;98743.61;;;4.80;52.35
64139;BME280;50435;43.700;-79.318;2023-04-01T05:18:36;98742.06;;;3.80;52.27
64139;BME280;50435;43.700;-79.318;2023-04-01T05:21:06;98744.64;;;4.54;52.16
64139;BME280;50435;43.700;-79.318;2023-04-01T05:23:34;98752.02;;;3.78;51.35
64139;BME280;50435;43.700;-79.318;2023-04-01T05:26:04;98749.18;;;4.72;52.06
64139;BME280;50435;43.700;-79.318;2023-04-01T05:28:31;98732.60;;;3.48;52.01
64139;BME280;50435;43.700;-79.318;2023-04-01T05:30:59;98713.37;;;4.70;52.08
64139;BME280;50435;43.700;-79.318;2023-04-01T05:33:29;98690.48;;;3.74;52.12
64139;BME280;50435;43.700;-79.318;2023-04-01T05:35:57;98682.63;;;4.46;51.86
64139;BME280;50435;43.700;-79.318;2023-04-01T05:38:32;98696.61;;;4.51;51.96
64139;BME280;50435;43.700;-79.318;2023-04-01T05:41:00;98701.23;;;4.71;51.45
64139;BME280;50435;43.700;-79.318;2023-04-01T05:43:28;98676.08;;;4.23;52.07
64139;BME280;50435;43.700;-79.318;2023-04-01T05:45:55;98643.55;;;4.75;51.67
64139;BME280;50435;43.700;-79.318;2023-04-01T05:48:22;98619.37;;;4.71;51.49
64139;BME280;50435;43.700;-79.318;2023-04-01T05:50:50;98598.68;;;4.67;51.93
64139;BME280;50435;43.700;-79.318;2023-04-01T05:53:17;98564.11;;;4.62;51.95
64139;BME280;50435;43.700;-79.318;2023-04-01T05:55:44;98539.07;;;4.20;52.32
64139;BME280;50435;43.700;-79.318;2023-04-01T05:58:12;98531.75;;;4.71;52.14
64139;BME280;50435;43.700;-79.318;2023-04-01T06:00:39;98556.57;;;4.34;51.46
64139;BME280;50435;43.700;-79.318;2023-04-01T06:03:06;98562.32;;;4.85;51.90
64139;BME280;50435;43.700;-79.318;2023-04-01T06:05:39;98562.33;;;3.48;52.08
64139;BME280;50435;43.700;-79.318;2023-04-01T06:08:11;98563.99;;;4.84;52.38
64139;BME280;50435;43.700;-79.318;2023-04-01T06:10:52;98556.70;;;3.81;53.16
64139;BME280;50435;43.700;-79.318;2023-04-01T06:13:34;98555.38;;;4.82;52.85
64139;BME280;50435;43.700;-79.318;2023-04-01T06:16:13;98545.86;;;4.97;52.81
64139;BME280;50435;43.700;-79.318;2023-04-01T06:18:52;98525.38;;;4.68;52.66
64139;BME280;50435;43.700;-79.318;2023-04-01T06:21:40;98526.18;;;4.86;53.11
64139;BME280;50435;43.700;-79.318;2023-04-01T06:24:22;98558.11;;;4.89;52.57
64139;BME280;50435;43.700;-79.318;2023-04-01T06:27:02;98580.83;;;5.07;52.88
64139;BME280;50435;43.700;-79.318;2023-04-01T06:29:47;98574.41;;;3.68;52.80
64139;BME280;50435;43.700;-79.318;2023-04-01T06:32:27;98542.02;;;4.87;52.65
64139;BME280;50435;43.700;-79.318;2023-04-01T06:35:17;98518.49;;;5.05;53.18
64139;BME280;50435;43.700;-79.318;2023-04-01T06:38:02;98467.26;;;5.07;52.84
64139;BME280;50435;43.700;-79.318;2023-04-01T06:40:49;98424.71;;;4.27;53.25
64139;BME280;50435;43.700;-79.318;2023-04-01T06:43:27;98432.40;;;5.12;53.22
64139;BME280;50435;43.700;-79.318;2023-04-01T06:46:06;98436.78;;;5.19;53.02
64139;BME280;50435;43.700;-79.318;2023-04-01T06:48:47;98428.99;;;4.25;52.64
64139;BME280;50435;43.700;-79.318;2023-04-01T06:51:24;98405.15;;;5.18;52.95
64139;BME280;50435;43.700;-79.318;2023-04-01T06:54:00;98384.05;;;4.90;52.84
64139;BME280;50435;43.700;-79.318;2023-04-01T06:56:32;98386.13;;;3.98;53.22
64139;BME280;50435;43.700;-79.318;2023-04-01T06:59:05;98394.50;;;5.23;52.69
64139;BME280;50435;43.700;-79.318;2023-04-01T07:01:37;98404.00;;;3.31;53.08
64139;BME280;50435;43.700;-79.318;2023-04-01T07:04:11;98398.02;;;5.26;53.00
64139;BME280;50435;43.700;-79.318;2023-04-01T07:06:45;98410.49;;;4.89;52.96
64139;BME280;50435;43.700;-79.318;2023-04-01T07:09:18;98373.90;;;5.35;52.80
64139;BME280;50435;43.700;-79.318;2023-04-01T07:11:46;98319.59;;;4.82;53.44
64139;BME280;50435;43.700;-79.318;2023-04-01T07:14:19;98307.95;;;5.16;53.28
64139;BME280;50435;43.700;-79.318;2023-04-01T07:16:51;98271.38;;;5.19;52.70
64139;BME280;50435;43.700;-79.318;2023-04-01T07:19:24;98276.11;;;5.36;53.19
64139;BME280;50435;43.700;-79.318;2023-04-01T07:21:58;98261.24;;;4.87;53.76
64139;BME280;50435;43.700;-79.318;2023-04-01T07:24:32;98237.96;;;4.95;53.51
64139;BME280;50435;43.700;-79.318;2023-04-01T07:26:59;98245.00;;;5.42;53.65
64139;BME280;50435;43.700;-79.318;2023-04-01T07:29:27;98256.98;;;4.77;53.88
64139;BME280;50435;43.700;-79.318;2023-04-01T07:32:12;98243.17;;;5.03;53.81
64139;BME280;50435;43.700;-79.318;2023-04-01T07:34:51;98219.88;;;4.58;53.42
64139;BME280;50435;43.700;-79.318;2023-04-01T07:37:28;98204.65;;;5.15;53.85
64139;BME280;50435;43.700;-79.318;2023-04-01T07:40:07;98183.02;;;5.19;53.99
64139;BME280;50435;43.700;-79.318;2023-04-01T07:42:52;98172.85;;;5.16;54.40
64139;BME280;50435;43.700;-79.318;2023-04-01T07:45:30;98148.69;;;5.56;53.24
64139;BME280;50435;43.700;-79.318;2023-04-01T07:48:08;98139.06;;;5.34;53.89
64139;BME280;50435;43.700;-79.318;2023-04-01T07:50:42;98125.41;;;5.30;54.34
64139;BME280;50435;43.700;-79.318;2023-04-01T07:53:19;98115.00;;;5.47;53.00
64139;BME280;50435;43.700;-79.318;2023-04-01T07:55:58;98113.61;;;5.37;53.89
64139;BME280;50435;43.700;-79.318;2023-04-01T07:58:32;98108.70;;;4.70;54.02
64139;BME280;50435;43.700;-79.318;2023-04-01T08:01:06;98109.04;;;5.45;54.13
64139;BME280;50435;43.700;-79.318;2023-04-01T08:03:48;98086.90;;;4.96;53.46
64139;BME280;50435;43.700;-79.318;2023-04-01T08:06:24;98049.25;;;5.71;53.74
64139;BME280;50435;43.700;-79.318;2023-04-01T08:09:02;98043.38;;;5.51;53.56
64139;BME280;50435;43.700;-79.318;2023-04-01T08:11:43;98046.12;;;4.46;54.47
64139;BME280;50435;43.700;-79.318;2023-04-01T08:14:21;98038.49;;;5.67;53.99
64139;BME280;50435;43.700;-79.318;2023-04-01T08:16:59;98016.35;;;5.62;54.27
64139;BME280;50435;43.700;-79.318;2023-04-01T08:19:35;97993.50;;;4.46;54.37
64139;BME280;50435;43.700;-79.318;2023-04-01T08:22:09;97980.61;;;5.78;53.83
64139;BME280;50435;43.700;-79.318;2023-04-01T08:24:42;97970.40;;;5.03;54.03
64139;BME280;50435;43.700;-79.318;2023-04-01T08:27:16;97957.65;;;5.95;54.43
64139;BME280;50435;43.700;-79.318;2023-04-01T08:29:48;97965.43;;;5.06;54.12
64139;BME280;50435;43.700;-79.318;2023-04-01T08:32:22;97958.94;;;5.61;54.48
64139;BME280;50435;43.700;-79.318;2023-04-01T08:35:02;97946.19;;;5.62;54.28
64139;BME280;50435;43.700;-79.318;2023-04-01T08:37:38;97931.57;;;4.88;54.10
64139;BME280;50435;43.700;-79.318;2023-04-01T08:40:32;97927.56;;;5.64;54.44
64139;BME280;50435;43.700;-79.318;2023-04-01T08:43:09;97931.80;;;6.08;54.43
64139;BME280;50435;43.700;-79.318;2023-04-01T08:45:49;97910.14;;;5.69;54.56
64139;BME280;50435;43.700;-79.318;2023-04-01T08:48:34;97908.46;;;5.68;54.70
64139;BME280;50435;43.700;-79.318;2023-04-01T08:51:15;97906.58;;;5.85;54.51
64139;BME280;50435;43.700;-79.318;2023-04-01T08:54:04;97905.91;;;5.57;54.67
64139;BME280;50435;43.700;-79.318;2023-04-01T08:56:40;97924.20;;;4.82;54.73
64139;BME280;50435;43.700;-79.318;2023-04-01T08:59:20;97913.95;;;6.29;55.18
64139;BME280;50435;43.700;-79.318;2023-04-01T09:02:02;97902.01;;;5.93;54.96
64139;BME280;50435;43.700;-79.318;2023-04-01T09:04:59;97889.57;;;5.45;55.03
64139;BME280;50435;43.700;-79.318;2023-04-01T09:07:40;97865.13;;;4.49;54.90
64139;BME280;50435;43.700;-79.318;2023-04-01T09:10:28;97848.19;;;6.02;54.40
64139;BME280;50435;43.700;-79.318;2023-04-01T09:13:14;97860.44;;;6.08;54.99
64139;BME280;50435;43.700;-79.318;2023-04-01T09:16:28;97850.17;;;5.77;54.85
64139;BME280;50435;43.700;-79.318;2023-04-01T09:19:15;97868.92;;;5.94;54.80
64139;BME280;50435;43.700;-79.318;2023-04-01T09:22:02;97861.62;;;5.74;55.25
64139;BME280;50435;43.700;-79.318;2023-04-01T09:24:48;97826.00;;;5.70;55.27
64139;BME280;50435;43.700;-79.318;2023-04-01T09:27:26;97792.50;;;6.18;55.49
64139;BME280;50435;43.700;-79.318;2023-04-01T09:30:13;97793.57;;;6.24;55.36
64139;BME280;50435;43.700;-79.318;2023-04-01T09:33:09;97790.99;;;5.94;55.97
64139;BME280;50435;43.700;-79.318;2023-04-01T09:35:46;97796.16;;;5.78;55.86
64139;BME280;50435;43.700;-79.318;2023-04-01T09:38:22;97806.53;;;6.39;55.26
64139;BME280;50435;43.700;-79.318;2023-04-01T09:40:55;97804.48;;;5.91;55.52
64139;BME280;50435;43.700;-79.318;2023-04-01T09:43:28;97790.08;;;6.39;55.60
64139;BME280;50435;43.700;-79.318;2023-04-01T09:46:09;97772.54;;;6.18;56.05
64139;BME280;50435;43.700;-79.318;2023-04-01T09:48:50;97779.52;;;5.44;56.10
64139;BME280;50435;43.700;-79.318;2023-04-01T09:51:32;97794.56;;;6.49;56.07
64139;BME280;50435;43.700;-79.318;2023-04-01T09:54:16;97812.85;;;6.60;55.92
64139;BME280;50435;43.700;-79.318;2023-04-01T09:58:10;97858.79;;;6.20;55.50
64139;BME280;50435;43.700;-79.318;2023-04-01T10:03:59;97894.42;;;7.01;55.47
64139;BME280;50435;43.700;-79.318;2023-04-01T10:07:36;97858.88;;;5.46;56.27
64139;BME280;50435;43.700;-79.318;2023-04-01T10:11:30;97819.58;;;6.49;55.99
64139;BME280;50435;43.700;-79.318;2023-04-01T10:14:24;97751.93;;;6.57;56.27
64139;BME280;50435;43.700;-79.318;2023-04-01T10:17:14;97730.65;;;6.23;56.43
64139;BME280;50435;43.700;-79.318;2023-04-01T10:20:34;97734.58;;;6.58;55.79
64139;BME280;50435;43.700;-79.318;2023-04-01T10:23:20;97768.27;;;6.72;56.20
64139;BME280;50435;43.700;-79.318;2023-04-01T10:26:03;97823.72;;;6.66;55.93
64139;BME280;50435;43.700;-79.318;2023-04-01T10:28:54;97807.17;;;6.11;56.01
64139;BME280;50435;43.700;-79.318;2023-04-01T10:31:44;97783.15;;;6.48;56.61
64139;BME280;50435;43.700;-79.318;2023-04-01T10:34:35;97753.64;;;6.72;56.86
64139;BME280;50435;43.700;-79.318;2023-04-01T10:37:15;97759.41;;;6.94;57.06
64139;BME280;50435;43.700;-79.318;2023-04-01T10:40:31;97810.26;;;6.51;56.12
64139;BME280;50435;43.700;-79.318;2023-04-01T10:43:32;97824.61;;;6.60;56.27
64139;BME280;50435;43.700;-79.318;2023-04-01T10:46:28;97827.87;;;6.87;56.52
64139;BME280;50435;43.700;-79.318;2023-04-01T10:49:26;97824.77;;;6.83;56.69
64139;BME280;50435;43.700;-79.318;2023-04-01T10:54:22;97825.43;;;7.31;56.84
64139;BME280;50435;43.700;-79.318;2023-04-01T10:57:02;97831.10;;;6.74;56.32
64139;BME280;50435;43.700;-79.318;2023-04-01T11:00:00;97850.20;;;6.51;56.70
64139;BME280;50435;43.700;-79.318;2023-04-01T11:02:59;97862.69;;;5.87;56.95
64139;BME280;50435;43.700;-79.318;2023-04-01T11:05:58;97856.93;;;5.83;56.88
64139;BME280;50435;43.700;-79.318;2023-04-01T11:09:02;97864.48;;;6.37;56.68
64139;BME280;50435;43.700;-79.318;2023-04-01T11:11:59;97875.34;;;5.84;56.63
64139;BME280;50435;43.700;-79.318;2023-04-01T11:18:50;97863.95;;;7.31;56.61
64139;BME280;50435;43.700;-79.318;2023-04-01T11:21:55;97889.17;;;6.17;57.06
64139;BME280;50435;43.700;-79.318;2023-04-01T11:25:09;97883.24;;;7.02;56.42
64139;BME280;50435;43.700;-79.318;2023-04-01T11:28:01;97876.69;;;6.44;56.50
64139;BME280;50435;43.700;-79.318;2023-04-01T11:30:49;97870.82;;;6.61;56.28
64139;BME280;50435;43.700;-79.318;2023-04-01T11:33:25;97869.85;;;7.41;55.75
64139;BME280;50435;43.700;-79.318;2023-04-01T11:36:03;97881.89;;;7.43;55.18
64139;BME280;50435;43.700;-79.318;2023-04-01T11:38:52;97881.82;;;5.64;55.53
64139;BME280;50435;43.700;-79.318;2023-04-01T11:41:32;97888.13;;;7.65;55.69
64139;BME280;50435;43.700;-79.318;2023-04-01T11:44:16;97885.43;;;7.75;54.99
64139;BME280;50435;43.700;-79.318;2023-04-01T11:46:59;97883.82;;;7.22;54.63
64139;BME280;50435;43.700;-79.318;2023-04-01T11:49:46;97885.62;;;6.47;54.92
64139;BME280;50435;43.700;-79.318;2023-04-01T11:52:30;97893.21;;;7.50;54.87
64139;BME280;50435;43.700;-79.318;2023-04-01T11:55:12;97898.01;;;7.77;55.60
64139;BME280;50435;43.700;-79.318;2023-04-01T11:57:51;97900.11;;;7.57;55.23
64139;BME280;50435;43.700;-79.318;2023-04-01T12:00:36;97904.85;;;7.78;55.44
64139;BME280;50435;43.700;-79.318;2023-04-01T12:03:26;97909.67;;;7.89;53.10
64139;BME280;50435;43.700;-79.318;2023-04-01T12:06:02;97910.88;;;7.84;55.11
64139;BME280;50435;43.700;-79.318;2023-04-01T12:08:41;97896.55;;;6.67;55.70
64139;BME280;50435;43.700;-79.318;2023-04-01T12:11:17;97888.61;;;7.97;54.65
64139;BME280;50435;43.700;-79.318;2023-04-01T12:13:53;97888.66;;;7.53;54.81
64139;BME280;50435;43.700;-79.318;2023-04-01T12:16:34;97880.21;;;7.99;55.51
64139;BME280;50435;43.700;-79.318;2023-04-01T12:19:11;97884.74;;;7.74;54.84
64139;BME280;50435;43.700;-79.318;2023-04-01T12:21:48;97881.14;;;7.29;55.57
64139;BME280;50435;43.700;-79.318;2023-04-01T12:24:32;97881.73;;;8.15;55.65
64139;BME280;50435;43.700;-79.318;2023-04-01T12:27:25;97881.90;;;7.96;55.28
64139;BME280;50435;43.700;-79.318;2023-04-01T12:32:18;97890.27;;;8.17;56.36
64139;BME280;50435;43.700;-79.318;2023-04-01T12:35:02;97888.71;;;7.67;56.26
64139;BME280;50435;43.700;-79.318;2023-04-01T12:37:39;97887.67;;;6.69;55.24
64139;BME280;50435;43.700;-79.318;2023-04-01T12:40:48;97890.15;;;8.20;55.36
64139;BME280;50435;43.700;-79.318;2023-04-01T12:43:46;97881.40;;;8.22;55.35
64139;BME280;50435;43.700;-79.318;2023-04-01T12:46:24;97883.41;;;8.32;55.24
64139;BME280;50435;43.700;-79.318;2023-04-01T12:49:10;97883.24;;;8.32;55.53
64139;BME280;50435;43.700;-79.318;2023-04-01T12:52:05;97878.07;;;7.83;55.04
64139;BME280;50435;43.700;-79.318;2023-04-01T12:55:26;97881.85;;;7.98;55.06
64139;BME280;50435;43.700;-79.318;2023-04-01T12:58:13;97877.18;;;8.12;54.80
64139;BME280;50435;43.700;-79.318;2023-04-01T13:00:58;97871.68;;;8.26;55.01
64139;BME280;50435;43.700;-79.318;2023-04-01T13:04:03;97866.77;;;7.14;55.64
64139;BME280;50435;43.700;-79.318;2023-04-01T13:06:45;97866.14;;;7.62;55.17
64139;BME280;50435;43.700;-79.318;2023-04-01T13:09:23;97865.18;;;8.78;55.65
64139;BME280;50435;43.700;-79.318;2023-04-01T13:12:08;97872.51;;;8.90;55.16
64139;BME280;50435;43.700;-79.318;2023-04-01T13:14:59;97865.35;;;8.76;55.49
64139;BME280;50435;43.700;-79.318;2023-04-01T13:17:38;97872.42;;;7.93;55.39
64139;BME280;50435;43.700;-79.318;2023-04-01T13:20:16;97862.76;;;9.29;55.27
64139;BME280;50435;43.700;-79.318;2023-04-01T13:22:56;97873.29;;;9.25;54.93
64139;BME280;50435;43.700;-79.318;2023-04-01T13:25:32;97881.06;;;9.12;54.85
64139;BME280;50435;43.700;-79.318;2023-04-01T13:28:12;97874.14;;;9.55;54.72
64139;BME280;50435;43.700;-79.318;2023-04-01T13:30:48;97875.77;;;9.52;55.03
64139;BME280;50435;43.700;-79.318;2023-04-01T13:33:25;97880.95;;;9.88;54.96
64139;BME280;50435;43.700;-79.318;2023-04-01T13:36:03;97884.85;;;10.14;54.34
64139;BME280;50435;43.700;-79.318;2023-04-01T13:38:52;97887.80;;;8.68;53.88
64139;BME280;50435;43.700;-79.318;2023-04-01T13:41:35;97890.32;;;10.52;54.01
64139;BME280;50435;43.700;-79.318;2023-04-01T13:44:11;97893.03;;;10.87;54.15
64139;BME280;50435;43.700;-79.318;2023-04-01T13:46:54;97900.05;;;9.65;55.11
64139;BME280;50435;43.700;-79.318;2023-04-01T13:49:45;97895.40;;;10.09;53.31
64139;BME280;50435;43.700;-79.318;2023-04-01T13:52:26;97894.75;;;11.36;52.67
64139;BME280;50435;43.700;-79.318;2023-04-01T13:55:14;97901.65;;;11.48;51.50